createdAt,value
2018-07-24T00:02:25.626Z,4.90
2018-07-24T00:04:53.927Z,7.77
2018-07-24T00:07:21.992Z,6.00
2018-07-24T00:09:50.547Z,5.73
2018-07-24T00:12:18.793Z,5.23
2018-07-24T01:39:15.213Z,5.80
2018-07-24T01:41:43.718Z,6.27
2018-07-24T01:44:12.108Z,5.83
2018-07-24T01:46:40.471Z,7.60
2018-07-24T01:49:08.783Z,5.67
2018-07-24T01:51:36.832Z,6.63
2018-07-24T01:54:05.137Z,6.67
2018-07-24T01:56:33.454Z,6.63
2018-07-24T01:59:01.471Z,5.40
2018-07-24T02:01:29.812Z,5.07
2018-07-24T02:03:57.904Z,5.80
2018-07-24T02:06:26.196Z,5.80
2018-07-24T02:08:54.267Z,5.60
2018-07-24T02:11:22.300Z,5.83
2018-07-24T02:13:50.572Z,6.97
2018-07-24T02:16:19.272Z,7.67
2018-07-24T02:18:47.570Z,6.10
2018-07-24T02:21:16.019Z,6.70
2018-07-24T02:23:44.344Z,9.40
2018-07-24T02:26:12.665Z,7.00
2018-07-24T02:28:40.965Z,5.20
2018-07-24T02:31:09.280Z,5.30
2018-07-24T02:33:37.592Z,5.57
2018-07-24T02:36:06.273Z,5.50
2018-07-24T02:38:34.309Z,5.87
2018-07-24T02:41:02.615Z,5.63
2018-07-24T02:43:30.939Z,5.60
2018-07-24T02:45:58.982Z,6.13
2018-07-24T02:48:27.275Z,5.50
2018-07-24T02:50:55.668Z,6.20
2018-07-24T02:53:24.023Z,5.43
2018-07-24T02:55:52.314Z,6.47
2018-07-24T02:58:20.973Z,5.93
2018-07-24T03:00:48.990Z,5.97
2018-07-24T03:03:17.239Z,6.10
2018-07-24T03:05:45.572Z,6.47
2018-07-24T03:08:13.866Z,5.97
2018-07-24T03:10:42.197Z,8.47
2018-07-24T03:13:10.484Z,5.40
2018-07-24T03:15:38.813Z,6.27
2018-07-24T03:18:07.145Z,5.53
2018-07-24T03:20:35.443Z,5.50
2018-07-24T03:23:03.764Z,6.13
2018-07-24T03:25:32.101Z,6.00
2018-07-24T03:28:00.396Z,5.83
2018-07-24T03:30:28.672Z,5.83
2018-07-24T03:32:57.330Z,7.10
2018-07-24T03:35:25.695Z,7.53
2018-07-24T03:37:54.098Z,6.03
2018-07-24T03:40:22.412Z,7.50
2018-07-24T03:42:50.720Z,6.40
2018-07-24T03:45:19.013Z,9.90
2018-07-24T03:47:47.375Z,7.00
2018-07-24T03:50:15.959Z,7.40
2018-07-24T03:52:44.291Z,6.43
2018-07-24T03:55:12.620Z,6.43
2018-07-24T03:57:40.960Z,5.70
2018-07-24T04:00:09.248Z,6.33
2018-07-24T04:02:37.545Z,7.33
2018-07-24T04:05:06.009Z,6.57
2018-07-24T04:07:34.405Z,6.50
2018-07-24T04:10:02.463Z,5.63
2018-07-24T04:12:30.758Z,6.37
2018-07-24T04:14:58.817Z,8.33
2018-07-24T04:17:27.203Z,6.17
2018-07-24T04:19:55.532Z,6.20
2018-07-24T04:22:23.690Z,7.80
2018-07-24T04:24:52.034Z,5.67
2018-07-24T04:27:20.327Z,6.20
2018-07-24T04:29:49.083Z,7.13
2018-07-24T04:32:17.127Z,7.53
2018-07-24T04:34:45.488Z,7.90
2018-07-24T04:37:13.820Z,7.67
2018-07-24T04:39:42.108Z,8.83
2018-07-24T04:42:11.293Z,8.67
2018-07-24T04:44:39.599Z,9.00
2018-07-24T04:47:07.886Z,10.43
2018-07-24T04:49:36.349Z,10.83
2018-07-24T04:52:04.676Z,11.97
2018-07-24T04:54:32.994Z,11.63
2018-07-24T04:57:01.298Z,10.40
2018-07-24T04:59:29.609Z,10.93
2018-07-24T05:01:57.964Z,11.90
2018-07-24T05:04:26.321Z,12.27
2018-07-24T05:06:54.719Z,11.00
2018-07-24T05:09:23.020Z,11.40
2018-07-24T05:11:51.327Z,11.47
2018-07-24T05:14:19.500Z,13.00
2018-07-24T05:16:47.821Z,12.30
2018-07-24T05:19:15.869Z,13.07
2018-07-24T05:21:44.229Z,11.93
2018-07-24T05:24:12.534Z,13.53
2018-07-24T05:26:41.257Z,10.23
2018-07-24T05:29:09.546Z,12.33
2018-07-24T05:31:37.809Z,9.40
2018-07-24T05:34:06.092Z,10.83
2018-07-24T05:36:34.372Z,9.57
2018-07-24T05:39:02.667Z,9.23
2018-07-24T05:41:30.968Z,10.00
2018-07-24T05:43:59.272Z,10.27
2018-07-24T05:46:27.582Z,8.60
2018-07-24T05:48:55.990Z,9.90
2018-07-24T05:51:24.332Z,10.20
2018-07-24T05:53:52.615Z,9.27
2018-07-24T05:56:20.923Z,7.50
2018-07-24T05:58:49.208Z,7.77
2018-07-24T06:01:17.495Z,8.53
2018-07-24T06:03:45.846Z,8.23
2018-07-24T06:06:14.466Z,7.77
2018-07-24T06:08:42.756Z,6.00
2018-07-24T06:11:11.064Z,8.80
2018-07-24T06:13:39.436Z,7.43
2018-07-24T06:16:07.704Z,8.00
2018-07-24T06:18:36.027Z,7.17
2018-07-24T06:21:04.335Z,7.60
2018-07-24T06:23:32.469Z,8.53
2018-07-24T06:26:08.091Z,6.97
2018-07-24T06:28:36.412Z,8.80
2018-07-24T06:31:04.712Z,7.93
2018-07-24T06:33:33.044Z,9.37
2018-07-24T06:36:01.346Z,10.13
2018-07-24T06:38:29.392Z,6.17
2018-07-24T06:40:57.664Z,8.37
2018-07-24T06:43:25.972Z,7.27
2018-07-24T06:45:54.304Z,8.43
2018-07-24T06:48:22.604Z,10.03
2018-07-24T06:50:50.952Z,8.30
2018-07-24T06:53:19.499Z,7.70
2018-07-24T06:55:47.818Z,9.40
2018-07-24T06:58:16.149Z,10.77
2018-07-24T07:00:44.181Z,8.97
2018-07-24T07:03:12.606Z,12.20
2018-07-24T07:05:40.992Z,8.83
2018-07-24T07:08:09.320Z,12.33
2018-07-24T07:10:37.630Z,9.90
2018-07-24T07:13:06.423Z,12.00
2018-07-24T07:15:34.848Z,10.00
2018-07-24T07:18:03.148Z,10.50
2018-07-24T07:20:31.571Z,10.40
2018-07-24T07:22:59.858Z,10.67
2018-07-24T07:25:28.205Z,12.27
2018-07-24T07:27:56.520Z,9.03
2018-07-24T07:30:24.836Z,12.90
2018-07-24T07:32:53.356Z,9.47
2018-07-24T07:35:21.655Z,8.13
2018-07-24T07:37:50.105Z,10.70
2018-07-24T07:40:18.393Z,10.37
2018-07-24T07:42:46.698Z,8.57
2018-07-24T07:45:15.219Z,7.03
2018-07-24T07:47:43.452Z,8.37
2018-07-24T07:50:11.477Z,9.63
2018-07-24T07:52:39.776Z,11.90
2018-07-24T07:55:08.069Z,6.90
2018-07-24T07:57:36.373Z,8.90
2018-07-24T08:00:05.196Z,8.77
2018-07-24T08:02:33.239Z,9.00
2018-07-24T08:05:01.684Z,8.30
2018-07-24T08:07:30.004Z,6.87
2018-07-24T08:10:02.867Z,6.00
2018-07-24T08:12:31.103Z,6.67
2018-07-24T08:14:59.261Z,9.90
2018-07-24T08:17:27.583Z,8.53
2018-07-24T08:19:55.836Z,8.10
2018-07-24T08:22:24.190Z,7.63
2018-07-24T08:24:54.460Z,8.77
2018-07-24T08:27:22.745Z,7.53
2018-07-24T08:29:51.059Z,7.27
2018-07-24T08:32:19.311Z,7.73
2018-07-24T08:34:47.322Z,8.37
2018-07-24T08:37:15.609Z,9.13
2018-07-24T08:39:43.878Z,8.90
2018-07-24T08:42:12.150Z,7.57
2018-07-24T08:44:40.184Z,5.80
2018-07-24T08:47:08.428Z,6.97
2018-07-24T08:49:36.427Z,7.63
2018-07-24T08:52:04.728Z,6.37
2018-07-24T08:54:33.256Z,8.50
2018-07-24T08:57:01.693Z,4.60
2018-07-24T08:59:30.072Z,5.30
2018-07-24T09:01:58.474Z,6.07
2018-07-24T09:04:27.116Z,5.97
2018-07-24T09:06:55.397Z,5.57
2018-07-24T09:09:23.868Z,6.27
2018-07-24T09:11:52.172Z,6.87
2018-07-24T09:14:20.436Z,8.10
2018-07-24T09:16:48.704Z,8.77
2018-07-24T09:19:17.012Z,6.50
2018-07-24T09:21:45.276Z,9.50
2018-07-24T09:24:13.284Z,9.57
2018-07-24T09:26:41.727Z,7.37
2018-07-24T09:29:09.997Z,7.87
2018-07-24T09:31:38.329Z,10.40
2018-07-24T09:34:06.376Z,7.93
2018-07-24T09:36:34.644Z,12.30
2018-07-24T09:39:02.940Z,8.27
2018-07-24T09:41:31.259Z,10.63
2018-07-24T09:43:59.537Z,12.70
2018-07-24T09:46:27.882Z,7.93
2018-07-24T09:48:56.180Z,8.67
2018-07-24T09:51:24.499Z,7.93
2018-07-24T09:53:52.861Z,9.20
2018-07-24T09:56:21.144Z,9.20
2018-07-24T09:58:49.529Z,10.67
2018-07-24T10:01:23.239Z,6.17
2018-07-24T10:03:51.536Z,9.63
2018-07-24T10:06:19.811Z,6.67
2018-07-24T10:08:48.116Z,5.73
2018-07-24T10:11:16.448Z,5.10
2018-07-24T10:13:44.710Z,5.50
2018-07-24T10:16:12.968Z,5.47
2018-07-24T10:18:41.260Z,4.60
2018-07-24T10:21:09.579Z,4.50
2018-07-24T10:23:37.847Z,7.77
2018-07-24T10:26:06.343Z,3.53
2018-07-24T10:28:34.631Z,4.83
2018-07-24T10:31:02.916Z,5.87
2018-07-24T10:33:31.193Z,5.63
2018-07-24T10:35:59.727Z,4.03
2018-07-24T10:38:28.580Z,4.83
2018-07-24T10:40:56.977Z,3.50
2018-07-24T10:43:25.259Z,4.63
2018-07-24T10:45:53.275Z,6.20
2018-07-24T10:48:21.598Z,4.47
2018-07-24T10:50:49.869Z,5.20
2018-07-24T10:53:18.145Z,4.33
2018-07-24T10:55:46.428Z,3.17
2018-07-24T10:58:14.703Z,4.43
2018-07-24T11:00:42.959Z,3.63
2018-07-24T11:03:11.037Z,2.50
2018-07-24T11:05:39.347Z,5.23
2018-07-24T11:08:07.512Z,10.63
2018-07-24T11:10:35.804Z,6.07
2018-07-24T11:13:04.197Z,3.13
2018-07-24T11:15:32.480Z,5.83
2018-07-24T11:18:00.882Z,2.97
2018-07-24T11:20:28.999Z,3.50
2018-07-24T11:22:57.485Z,6.23
2018-07-24T11:25:25.509Z,3.60
2018-07-24T11:27:53.859Z,2.90
2018-07-24T11:30:22.412Z,3.83
2018-07-24T11:32:50.754Z,3.27
2018-07-24T11:35:19.036Z,3.47
2018-07-24T11:37:47.316Z,3.50
2018-07-24T11:40:15.628Z,4.57
2018-07-24T11:42:43.948Z,4.83
2018-07-24T11:45:12.240Z,3.50
2018-07-24T11:47:40.542Z,3.97
2018-07-24T11:50:08.572Z,6.67
2018-07-24T11:52:36.872Z,5.50
2018-07-24T11:55:05.151Z,5.30
2018-07-24T11:57:33.406Z,4.10
2018-07-24T12:00:01.712Z,4.10
2018-07-24T12:02:30.033Z,3.50
2018-07-24T12:04:58.317Z,4.37
2018-07-24T12:07:27.720Z,5.80
2018-07-24T12:09:56.007Z,5.30
2018-07-24T12:12:24.406Z,5.87
2018-07-24T12:14:52.859Z,5.20
2018-07-24T12:17:21.080Z,5.80
2018-07-24T12:19:49.368Z,4.90
2018-07-24T12:22:17.669Z,3.33
2018-07-24T12:24:45.965Z,3.83
2018-07-24T12:27:14.314Z,5.33
2018-07-24T12:29:42.575Z,3.77
2018-07-24T12:32:10.881Z,6.00
2018-07-24T12:34:38.894Z,3.50
2018-07-24T12:37:07.165Z,4.93
2018-07-24T12:39:38.056Z,6.73
2018-07-24T12:42:06.523Z,3.60
2018-07-24T12:44:35.262Z,3.50
2018-07-24T12:47:03.549Z,4.57
2018-07-24T12:49:31.852Z,4.20
2018-07-24T12:52:00.164Z,6.20
2018-07-24T12:54:28.314Z,7.77
2018-07-24T12:56:56.654Z,4.73
2018-07-24T12:59:24.972Z,4.87
2018-07-24T13:01:53.321Z,3.83
2018-07-24T13:04:21.617Z,3.40
2018-07-24T13:06:49.908Z,3.83
2018-07-24T13:09:18.152Z,4.23
2018-07-24T13:11:46.424Z,4.47
2018-07-24T13:14:14.693Z,5.53
2018-07-24T13:16:43.042Z,3.13
2018-07-24T13:19:11.275Z,4.93
2018-07-24T13:21:39.520Z,3.27
2018-07-24T13:24:07.520Z,6.17
2018-07-24T13:26:35.785Z,4.70
2018-07-24T13:29:04.074Z,5.00
2018-07-24T13:31:32.368Z,3.93
2018-07-24T13:34:00.384Z,3.70
2018-07-24T13:36:28.735Z,3.30
2018-07-24T13:38:56.843Z,5.80
2018-07-24T13:41:25.141Z,3.37
2018-07-24T13:43:53.671Z,3.77
2018-07-24T13:46:21.966Z,6.40
2018-07-24T13:48:50.260Z,4.57
2018-07-24T13:51:18.547Z,4.87
2018-07-24T13:53:46.900Z,3.57
2018-07-24T13:56:15.208Z,3.27
2018-07-24T13:58:43.480Z,3.20
2018-07-24T14:01:11.829Z,3.37
2018-07-24T14:03:40.109Z,4.17
2018-07-24T14:06:08.459Z,3.63
2018-07-24T14:08:36.727Z,3.77
2018-07-24T14:11:04.986Z,2.43
2018-07-24T14:13:33.276Z,2.43
2018-07-24T14:16:01.493Z,3.27
2018-07-24T14:18:29.812Z,2.10
2018-07-24T14:20:58.217Z,4.00
2018-07-24T14:23:26.504Z,2.53
2018-07-24T14:25:54.835Z,2.63
2018-07-24T14:28:23.120Z,2.17
2018-07-24T14:30:51.383Z,2.87
2018-07-24T14:33:21.068Z,2.47
2018-07-24T14:35:49.476Z,2.73
2018-07-24T14:38:17.964Z,2.27
2018-07-24T14:40:46.262Z,2.73
2018-07-24T14:43:14.592Z,3.30
2018-07-24T14:45:42.633Z,4.07
2018-07-24T14:48:11.000Z,3.20
2018-07-24T14:50:39.249Z,2.00
2018-07-24T14:53:07.331Z,1.97
2018-07-24T14:55:35.352Z,2.57
2018-07-24T14:58:04.256Z,1.60
2018-07-24T15:00:32.529Z,1.70
2018-07-24T15:03:00.796Z,1.87
2018-07-24T15:05:29.276Z,2.20
2018-07-24T15:07:57.609Z,2.00
2018-07-24T15:10:27.900Z,2.37
2018-07-24T15:12:56.188Z,1.97
2018-07-24T15:15:24.544Z,3.10
2018-07-24T15:17:52.816Z,3.57
2018-07-24T15:20:21.074Z,2.27
2018-07-24T15:22:49.657Z,2.40
2018-07-24T15:25:17.766Z,1.47
2018-07-24T15:27:46.093Z,1.87
2018-07-24T15:30:23.332Z,1.93
2018-07-24T15:32:51.616Z,2.20
2018-07-24T15:35:19.684Z,1.90
2018-07-24T15:37:47.960Z,2.00
2018-07-24T15:40:16.243Z,2.10
2018-07-24T15:42:44.514Z,2.10
2018-07-24T15:45:12.819Z,1.90
2018-07-24T15:47:41.096Z,1.57
2018-07-24T15:50:09.372Z,2.20
2018-07-24T15:52:37.637Z,1.77
2018-07-24T15:55:05.913Z,3.43
2018-07-24T15:57:34.289Z,1.23
2018-07-24T16:00:02.519Z,2.87
2018-07-24T16:02:30.809Z,2.67
2018-07-24T16:04:59.121Z,2.33
2018-07-24T16:07:27.420Z,2.63
2018-07-24T16:09:55.706Z,7.73
2018-07-24T16:12:23.985Z,4.17
2018-07-24T16:14:52.277Z,2.70
2018-07-24T16:17:20.537Z,2.37
2018-07-24T16:19:48.834Z,2.60
2018-07-24T16:22:17.179Z,1.80
2018-07-24T16:24:45.485Z,2.70
2018-07-24T16:27:13.527Z,2.43
2018-07-24T16:29:41.831Z,2.50
2018-07-24T16:32:10.440Z,2.90
2018-07-24T16:34:38.466Z,4.50
2018-07-24T16:37:06.859Z,6.73
2018-07-24T16:39:35.184Z,5.47
2018-07-24T16:42:03.445Z,5.10
2018-07-24T16:44:31.748Z,2.77
2018-07-24T16:47:00.134Z,3.07
2018-07-24T16:49:28.435Z,8.57
2018-07-24T16:51:56.765Z,3.40
2018-07-24T16:54:25.108Z,2.27
2018-07-24T16:56:53.436Z,2.33
2018-07-24T16:59:21.465Z,5.73
2018-07-24T17:01:49.787Z,3.50
2018-07-24T17:04:18.043Z,3.77
2018-07-24T17:06:46.280Z,2.47
2018-07-24T17:09:14.285Z,2.50
2018-07-24T17:11:42.524Z,2.20
2018-07-24T17:14:10.789Z,2.00
2018-07-24T17:16:39.068Z,1.83
2018-07-24T17:19:07.352Z,3.17
2018-07-24T17:21:35.610Z,3.77
2018-07-24T17:24:03.859Z,3.00
2018-07-24T17:26:32.253Z,2.70
2018-07-24T17:29:00.519Z,3.20
2018-07-24T17:31:28.830Z,2.20
2018-07-24T17:33:57.145Z,2.23
2018-07-24T17:36:25.238Z,2.23
2018-07-24T17:38:53.563Z,2.97
2018-07-24T17:41:21.851Z,2.33
2018-07-24T17:43:50.154Z,2.10
2018-07-24T17:46:18.414Z,2.40
2018-07-24T17:48:46.673Z,2.90
2018-07-24T17:51:14.695Z,2.93
2018-07-24T17:53:43.002Z,3.07
2018-07-24T17:56:11.244Z,3.17
2018-07-24T17:58:39.544Z,2.60
2018-07-24T18:01:07.885Z,2.50
2018-07-24T18:03:36.119Z,2.87
2018-07-24T18:06:04.496Z,2.53
2018-07-24T18:08:32.765Z,2.80
2018-07-24T18:11:01.029Z,2.50
2018-07-24T18:13:29.316Z,2.30
2018-07-24T18:15:57.586Z,2.63
2018-07-24T18:18:25.874Z,3.00
2018-07-24T18:20:54.521Z,4.20
2018-07-24T18:23:22.797Z,5.20
2018-07-24T18:25:51.137Z,5.50
2018-07-24T18:28:19.388Z,3.47
2018-07-24T18:30:47.395Z,3.40
2018-07-24T18:33:15.712Z,4.17
2018-07-24T18:35:43.957Z,3.40
2018-07-24T18:38:11.978Z,3.87
2018-07-24T18:40:40.264Z,5.30
2018-07-24T18:43:08.544Z,3.53
2018-07-24T18:45:36.844Z,3.00
2018-07-24T18:48:06.144Z,3.13
2018-07-24T18:50:34.656Z,2.40
2018-07-24T18:53:02.901Z,3.07
2018-07-24T18:55:30.895Z,3.17
2018-07-24T18:57:59.155Z,3.60
2018-07-24T19:00:27.517Z,2.40
2018-07-24T19:02:56.140Z,3.10
2018-07-24T19:05:24.726Z,3.80
2018-07-24T19:07:53.399Z,4.60
2018-07-24T19:10:21.672Z,4.23
2018-07-24T19:12:49.996Z,4.50
2018-07-24T19:15:18.600Z,3.50
2018-07-24T19:17:46.868Z,3.63
2018-07-24T19:20:15.196Z,3.93
2018-07-24T19:22:43.247Z,2.80
2018-07-24T19:25:11.576Z,3.67
2018-07-24T19:27:40.256Z,4.00
2018-07-24T19:30:08.526Z,3.80
2018-07-24T19:32:36.800Z,3.00
2018-07-24T19:35:05.162Z,4.60
2018-07-24T19:37:33.416Z,2.77
2018-07-24T19:40:01.804Z,3.50
2018-07-24T19:42:30.300Z,3.47
2018-07-24T19:44:58.633Z,2.67
2018-07-24T19:47:26.937Z,3.07
2018-07-24T19:49:55.225Z,3.93
2018-07-24T19:52:23.512Z,3.73
2018-07-24T19:54:51.764Z,2.73
2018-07-24T19:57:20.024Z,2.60
2018-07-24T19:59:48.293Z,4.37
2018-07-24T20:02:16.557Z,3.40
2018-07-24T20:04:44.803Z,3.87
2018-07-24T20:07:12.839Z,3.70
2018-07-24T20:09:41.150Z,3.90
2018-07-24T20:12:09.450Z,3.50
2018-07-24T20:14:37.475Z,4.80
2018-07-24T20:17:05.760Z,3.10
2018-07-24T20:19:34.080Z,3.50
2018-07-24T20:22:02.356Z,3.90
2018-07-24T20:24:30.643Z,4.93
2018-07-24T20:26:58.911Z,4.33
2018-07-24T20:29:27.428Z,4.37
2018-07-24T20:31:55.780Z,3.77
2018-07-24T20:34:24.066Z,5.03
2018-07-24T20:36:52.360Z,4.87
2018-07-24T20:39:20.624Z,6.23
2018-07-24T20:41:48.908Z,5.67
2018-07-24T20:44:17.402Z,4.87
2018-07-24T20:46:45.691Z,5.17
2018-07-24T20:49:13.969Z,5.13
2018-07-24T20:51:42.276Z,4.33
2018-07-24T20:54:10.303Z,3.27
2018-07-24T20:56:38.578Z,5.37
2018-07-24T20:59:06.848Z,5.37
2018-07-24T21:01:35.292Z,6.17
2018-07-24T21:04:03.661Z,4.77
2018-07-24T21:06:31.920Z,6.77
2018-07-24T21:08:59.960Z,3.87
2018-07-24T21:11:28.256Z,6.50
2018-07-24T21:13:56.971Z,4.10
2018-07-24T21:16:25.022Z,4.13
2018-07-24T21:18:53.357Z,4.20
2018-07-24T21:21:21.411Z,4.53
2018-07-24T21:23:49.832Z,5.57
2018-07-24T21:26:17.908Z,5.80
2018-07-24T21:28:46.785Z,5.17
2018-07-24T21:31:15.066Z,4.20
2018-07-24T21:33:43.345Z,5.10
2018-07-24T21:36:11.976Z,5.53
2018-07-24T21:38:40.029Z,4.53
2018-07-24T21:41:08.324Z,4.43
2018-07-24T21:43:36.674Z,5.93
2018-07-24T21:46:05.226Z,6.20
2018-07-24T21:48:33.515Z,6.67
2018-07-24T21:51:01.839Z,6.47
2018-07-24T21:53:30.413Z,5.20
2018-07-24T21:55:58.492Z,5.27
2018-07-24T21:58:26.794Z,5.50
2018-07-24T22:01:00.376Z,4.77
2018-07-24T22:03:28.722Z,7.13
2018-07-24T22:05:57.040Z,6.30
2018-07-24T22:08:25.993Z,4.27
2018-07-24T22:10:54.064Z,4.67
2018-07-24T22:13:22.080Z,6.33
2018-07-24T22:15:50.353Z,4.97
2018-07-24T22:18:18.651Z,5.03
2018-07-24T22:20:47.127Z,4.83
2018-07-24T22:23:15.460Z,5.93
2018-07-24T22:25:43.778Z,6.33
2018-07-24T22:28:12.391Z,5.50
2018-07-24T22:30:40.663Z,4.43
2018-07-24T22:33:08.962Z,5.50
2018-07-24T22:35:37.263Z,5.90
2018-07-24T22:38:05.873Z,4.93
2018-07-24T22:40:33.887Z,5.60
2018-07-24T22:43:02.166Z,5.10
2018-07-24T22:45:30.432Z,4.77
2018-07-24T22:47:58.460Z,4.90
2018-07-24T22:50:26.859Z,4.87
2018-07-24T22:52:55.152Z,5.93
2018-07-24T22:55:23.470Z,5.97
2018-07-24T22:57:51.495Z,4.47
2018-07-24T23:00:19.782Z,5.57
2018-07-24T23:02:48.068Z,4.97
2018-07-24T23:05:16.412Z,6.63
2018-07-24T23:07:44.703Z,6.63
2018-07-24T23:10:13.102Z,5.77
2018-07-24T23:12:42.521Z,5.23
2018-07-24T23:15:10.534Z,5.13
2018-07-24T23:17:38.812Z,4.93
2018-07-24T23:20:07.248Z,5.37
2018-07-24T23:22:35.551Z,5.10
2018-07-24T23:25:03.838Z,6.90
2018-07-24T23:27:32.118Z,6.40
2018-07-24T23:30:00.377Z,4.60
2018-07-24T23:32:28.784Z,5.83
2018-07-24T23:34:57.100Z,5.90
2018-07-24T23:37:25.436Z,4.93
2018-07-24T23:39:53.755Z,5.73
2018-07-24T23:42:22.115Z,8.50
2018-07-24T23:44:50.396Z,6.57
2018-07-24T23:47:18.639Z,6.77
2018-07-24T23:49:46.917Z,6.63
2018-07-24T23:52:15.177Z,6.83
2018-07-24T23:54:44.144Z,5.77
2018-07-24T23:57:12.149Z,7.20
2018-07-24T23:59:40.451Z,6.27
